createdAt,value
2022-10-11T00:01:31.401Z,82.95
2022-10-11T00:04:39.330Z,82.97
2022-10-11T00:07:47.881Z,83.74
2022-10-11T00:11:07.347Z,83.92
2022-10-11T00:14:22.359Z,84.17
2022-10-11T00:17:31.903Z,83.74
2022-10-11T00:20:46.351Z,84.00
2022-10-11T00:23:55.344Z,84.83
2022-10-11T00:27:10.347Z,85.02
2022-10-11T00:30:25.341Z,85.59
2022-10-11T00:33:27.386Z,85.64
2022-10-11T00:36:42.361Z,86.20
2022-10-11T00:39:50.884Z,85.96
2022-10-11T00:43:05.343Z,86.29
2022-10-11T00:46:20.374Z,85.74
2022-10-11T00:49:49.193Z,84.95
2022-10-11T00:53:07.363Z,84.64
2022-10-11T00:56:34.364Z,84.66
2022-10-11T00:59:41.367Z,85.37
2022-10-11T01:02:57.359Z,85.57
2022-10-11T01:05:59.084Z,86.10
2022-10-11T01:09:13.348Z,85.95
2022-10-11T01:12:26.380Z,86.12
2022-10-11T01:15:37.552Z,86.63
2022-10-11T01:19:11.367Z,86.64
2022-10-11T01:22:46.347Z,87.01
2022-10-11T01:26:12.845Z,87.54
2022-10-11T01:29:56.358Z,87.82
2022-10-11T01:33:30.371Z,88.12
2022-10-11T01:36:39.837Z,88.16
2022-10-11T01:40:11.372Z,87.86
2022-10-11T01:43:28.391Z,88.48
2022-10-11T01:46:31.591Z,88.46
2022-10-11T01:49:46.373Z,88.83
2022-10-11T01:52:56.961Z,87.90
2022-10-11T01:56:39.361Z,88.50
2022-10-11T02:00:01.356Z,88.57
2022-10-11T02:03:33.921Z,88.58
2022-10-11T02:07:03.369Z,87.87
2022-10-11T02:10:26.373Z,88.38
2022-10-11T02:13:47.348Z,88.59
2022-10-11T02:17:06.371Z,87.98
2022-10-11T02:20:20.347Z,88.62
2022-10-11T02:23:36.737Z,88.65
2022-10-11T02:26:56.351Z,89.02
2022-10-11T02:30:07.384Z,89.16
2022-10-11T02:33:19.354Z,89.90
2022-10-11T02:36:49.379Z,88.71
2022-10-11T02:40:05.126Z,88.37
2022-10-11T02:43:34.386Z,88.18
2022-10-11T02:46:45.273Z,88.39
2022-10-11T02:49:53.394Z,88.12
2022-10-11T02:53:01.822Z,87.58
2022-10-11T02:56:16.366Z,87.06
2022-10-11T02:59:38.348Z,87.79
2022-10-11T03:02:46.366Z,87.33
2022-10-11T03:06:06.762Z,87.20
2022-10-11T03:09:15.376Z,87.65
2022-10-11T03:12:23.874Z,87.80
2022-10-11T03:15:32.368Z,86.90
2022-10-11T03:18:40.931Z,86.80
2022-10-11T03:21:55.379Z,86.78
2022-10-11T03:25:10.346Z,86.42
2022-10-11T03:28:19.475Z,86.30
2022-10-11T03:31:27.869Z,86.08
2022-10-11T03:34:42.371Z,87.09
2022-10-11T03:37:50.951Z,86.84
2022-10-11T03:40:59.405Z,86.46
2022-10-11T03:44:07.886Z,86.56
2022-10-11T03:47:16.374Z,86.45
2022-10-11T03:50:31.384Z,86.07
2022-10-11T03:53:33.195Z,86.88
2022-10-11T03:56:48.363Z,86.66
2022-10-11T04:00:05.346Z,86.63
2022-10-11T04:03:20.357Z,86.73
2022-10-11T04:06:35.378Z,85.95
2022-10-11T04:09:44.106Z,85.36
2022-10-11T04:12:52.371Z,85.45
2022-10-11T04:16:07.654Z,85.75
2022-10-11T04:19:09.699Z,85.24
2022-10-11T04:22:24.378Z,85.36
2022-10-11T04:25:26.173Z,85.34
2022-10-11T04:28:48.490Z,85.61
2022-10-11T04:31:50.499Z,85.16
2022-10-11T04:35:05.377Z,85.22
2022-10-11T04:38:20.389Z,85.27
2022-10-11T04:41:28.382Z,85.00
2022-10-11T04:44:43.373Z,85.64
2022-10-11T04:47:45.157Z,85.34
2022-10-11T04:51:00.372Z,86.10
2022-10-11T04:54:15.376Z,85.76
2022-10-11T04:57:30.571Z,85.95
2022-10-11T05:00:45.365Z,85.50
2022-10-11T05:04:00.364Z,86.50
2022-10-11T05:07:02.130Z,85.82
2022-10-11T05:10:17.353Z,85.62
2022-10-11T05:13:27.144Z,85.76
2022-10-11T05:16:42.385Z,85.77
2022-10-11T05:19:50.380Z,85.87
2022-10-11T05:22:58.889Z,85.81
2022-10-11T05:26:13.400Z,85.38
2022-10-11T05:29:15.645Z,85.47
2022-10-11T05:32:30.373Z,85.34
2022-10-11T05:35:32.107Z,85.81
2022-10-11T05:38:47.371Z,86.29
2022-10-11T05:42:03.827Z,86.19
2022-10-11T05:45:15.416Z,85.47
2022-10-11T05:48:23.954Z,85.78
2022-10-11T05:51:38.385Z,86.02
2022-10-11T05:54:47.861Z,86.60
2022-10-11T05:58:09.381Z,85.71
2022-10-11T06:01:19.880Z,84.59
2022-10-11T06:04:34.380Z,84.77
2022-10-11T06:07:43.305Z,84.16
2022-10-11T06:10:51.392Z,84.25
2022-10-11T06:14:06.354Z,84.33
2022-10-11T06:17:08.093Z,84.94
2022-10-11T06:20:24.366Z,83.65
2022-10-11T06:23:33.387Z,84.18
2022-10-11T06:26:41.931Z,83.78
2022-10-11T06:29:56.367Z,82.57
2022-10-11T06:33:11.374Z,82.89
2022-10-11T06:36:26.394Z,82.96
2022-10-11T06:39:41.364Z,83.27
2022-10-11T06:42:47.488Z,83.12
2022-10-11T06:46:06.662Z,82.78
2022-10-11T06:49:08.787Z,82.87
2022-10-11T06:52:23.399Z,82.54
2022-10-11T06:55:31.404Z,82.24
2022-10-11T06:58:53.387Z,82.37
2022-10-11T07:02:08.385Z,82.06
2022-10-11T07:05:24.381Z,81.07
2022-10-11T07:08:32.403Z,79.93
2022-10-11T07:11:47.386Z,80.97
2022-10-11T07:14:55.384Z,78.96
2022-10-11T07:18:04.792Z,78.97
2022-10-11T07:21:21.392Z,78.69
2022-10-11T07:24:23.166Z,77.34
2022-10-11T07:27:39.423Z,76.38
2022-10-11T07:30:55.379Z,75.07
2022-10-11T07:34:11.409Z,74.55
2022-10-11T07:37:13.258Z,73.62
2022-10-11T07:40:29.365Z,73.78
2022-10-11T07:43:31.641Z,72.10
2022-10-11T07:46:46.450Z,71.29
2022-10-11T07:50:01.783Z,71.22
2022-10-11T07:53:04.396Z,71.14
2022-10-11T07:56:21.373Z,70.89
2022-10-11T07:59:29.973Z,69.39
2022-10-11T08:02:38.370Z,69.35
2022-10-11T08:05:53.388Z,68.45
2022-10-11T08:09:09.379Z,69.20
2022-10-11T08:12:17.421Z,70.11
2022-10-11T08:15:32.392Z,68.85
2022-10-11T08:18:47.390Z,68.25
2022-10-11T08:21:55.389Z,68.55
2022-10-11T08:25:04.242Z,67.85
2022-10-11T08:28:13.432Z,67.75
2022-10-11T08:31:22.903Z,67.72
2022-10-11T08:34:37.651Z,68.21
2022-10-11T08:37:52.385Z,67.88
2022-10-11T08:41:08.390Z,68.84
2022-10-11T08:44:22.067Z,67.35
2022-10-11T08:47:37.528Z,66.74
2022-10-11T08:50:57.393Z,66.83
2022-10-11T08:54:28.335Z,68.11
2022-10-11T08:57:55.395Z,68.44
2022-10-11T09:01:13.445Z,67.70
2022-10-11T09:04:17.820Z,67.88
2022-10-11T09:07:53.389Z,67.08
2022-10-11T09:11:23.149Z,66.71
2022-10-11T09:15:00.821Z,66.13
2022-10-11T09:18:08.756Z,66.17
2022-10-11T09:21:43.376Z,66.47
2022-10-11T09:25:09.452Z,66.60
2022-10-11T09:28:39.348Z,67.90
2022-10-11T09:31:58.409Z,68.18
2022-10-11T09:35:10.604Z,65.56
2022-10-11T09:38:33.528Z,66.03
2022-10-11T09:42:00.387Z,65.16
2022-10-11T09:45:02.634Z,64.50
2022-10-11T09:48:29.547Z,63.98
2022-10-11T09:51:47.398Z,64.02
2022-10-11T09:54:51.691Z,63.60
2022-10-11T09:58:33.395Z,62.45
2022-10-11T10:01:48.440Z,62.27
2022-10-11T10:05:04.714Z,62.48
2022-10-11T10:08:22.402Z,62.51
2022-10-11T10:11:30.428Z,61.84
2022-10-11T10:14:41.327Z,62.74
2022-10-11T10:17:58.460Z,61.88
2022-10-11T10:21:01.358Z,61.88
2022-10-11T10:24:25.565Z,61.89
2022-10-11T10:27:41.385Z,62.69
2022-10-11T10:30:55.626Z,62.44
2022-10-11T10:34:19.407Z,62.42
2022-10-11T10:37:58.398Z,61.46
2022-10-11T10:41:12.503Z,62.27
2022-10-11T10:44:27.397Z,62.23
2022-10-11T10:48:12.784Z,61.07
2022-10-11T10:51:33.385Z,60.30
2022-10-11T10:55:19.403Z,62.44
2022-10-11T10:58:50.781Z,63.09
2022-10-11T11:02:39.501Z,64.24
2022-10-11T11:06:02.553Z,64.11
2022-10-11T11:09:53.400Z,65.31
2022-10-11T11:13:11.546Z,63.52
2022-10-11T11:16:47.482Z,65.00
2022-10-11T11:20:17.791Z,65.66
2022-10-11T11:23:55.059Z,64.27
2022-10-11T11:27:07.389Z,65.51
2022-10-11T11:30:36.397Z,64.16
2022-10-11T11:34:07.386Z,63.52
2022-10-11T11:37:19.214Z,63.32
2022-10-11T11:40:49.700Z,63.92
2022-10-11T11:44:10.404Z,63.91
2022-10-11T11:47:43.411Z,63.28
2022-10-11T11:51:14.413Z,64.69
2022-10-11T11:55:07.461Z,64.38
2022-10-11T12:02:38.422Z,63.45
2022-10-11T12:06:23.529Z,63.34
2022-10-11T12:09:40.419Z,64.30
2022-10-11T12:12:42.611Z,63.81
2022-10-11T12:16:08.427Z,63.73
2022-10-11T12:19:14.000Z,63.57
2022-10-11T12:22:34.408Z,63.77
2022-10-11T12:25:46.396Z,61.35
2022-10-11T12:29:47.465Z,63.09
2022-10-11T12:33:19.399Z,62.18
2022-10-11T12:36:34.420Z,62.76
2022-10-11T12:39:51.671Z,62.71
2022-10-11T12:43:23.424Z,63.59
2022-10-11T12:46:31.904Z,62.82
2022-10-11T12:50:09.483Z,61.97
2022-10-11T12:53:37.859Z,62.69
2022-10-11T12:57:12.363Z,63.39
2022-10-11T13:00:38.428Z,62.98
2022-10-11T13:03:44.480Z,62.96
2022-10-11T13:07:06.852Z,62.67
2022-10-11T13:10:37.426Z,63.19
2022-10-11T13:14:16.484Z,64.63
2022-10-11T13:17:38.678Z,64.64
2022-10-11T13:20:47.418Z,68.65
2022-10-11T13:24:16.420Z,65.88
2022-10-11T13:27:33.436Z,66.24
2022-10-11T13:30:37.196Z,65.76
2022-10-11T13:34:10.481Z,65.08
2022-10-11T13:37:31.502Z,66.83
2022-10-11T13:41:31.877Z,65.21
2022-10-11T13:44:48.405Z,63.91
2022-10-11T13:47:58.419Z,64.51
2022-10-11T13:51:33.437Z,65.28
2022-10-11T13:55:07.434Z,67.45
2022-10-11T13:58:33.460Z,70.72
2022-10-11T14:01:45.371Z,71.11
2022-10-11T14:05:00.458Z,67.82
2022-10-11T14:08:38.461Z,69.64
2022-10-11T14:11:47.462Z,67.83
2022-10-11T14:15:02.437Z,68.65
2022-10-11T14:18:48.438Z,68.77
2022-10-11T14:21:56.993Z,69.44
2022-10-11T14:25:05.482Z,69.88
2022-10-11T14:28:13.999Z,70.48
2022-10-11T14:31:28.483Z,72.10
2022-10-11T14:34:38.426Z,70.64
2022-10-11T14:37:53.432Z,73.20
2022-10-11T14:41:01.440Z,72.63
2022-10-11T14:44:16.427Z,73.76
2022-10-11T14:47:25.032Z,73.58
2022-10-11T14:50:43.445Z,74.06
2022-10-11T14:53:58.483Z,75.81
2022-10-11T14:57:09.454Z,76.28
2022-10-11T15:00:26.916Z,76.77
2022-10-11T15:03:41.482Z,77.84
2022-10-11T15:06:43.262Z,78.48
2022-10-11T15:09:58.431Z,79.07
2022-10-11T15:13:08.529Z,79.01
2022-10-11T15:16:19.458Z,78.89
2022-10-11T15:19:35.464Z,79.56
2022-10-11T15:22:43.996Z,79.86
2022-10-11T15:25:58.461Z,80.16
2022-10-11T15:29:17.446Z,80.08
2022-10-11T15:32:25.434Z,81.94
2022-10-11T15:35:40.427Z,81.94
2022-10-11T15:38:49.300Z,82.88
2022-10-11T15:41:57.441Z,83.13
2022-10-11T15:45:06.129Z,84.12
2022-10-11T15:48:22.452Z,84.49
2022-10-11T15:51:37.464Z,85.28
2022-10-11T15:54:45.987Z,86.34
2022-10-11T15:57:54.460Z,86.48
2022-10-11T16:01:21.475Z,86.12
2022-10-11T16:04:36.456Z,87.14
2022-10-11T16:07:51.465Z,87.30
2022-10-11T16:11:00.659Z,86.66
2022-10-11T16:14:15.711Z,86.37
2022-10-11T16:17:17.535Z,85.91
2022-10-11T16:20:32.443Z,86.98
2022-10-11T16:23:47.475Z,87.47
2022-10-11T16:26:49.246Z,88.04
2022-10-11T16:30:04.515Z,88.80
2022-10-11T16:33:14.446Z,89.43
2022-10-11T16:36:30.456Z,89.96
2022-10-11T16:39:46.427Z,90.48
2022-10-11T16:42:48.381Z,90.84
2022-10-11T16:46:05.837Z,91.36
2022-10-11T16:49:17.771Z,91.27
2022-10-11T16:52:26.484Z,91.48
2022-10-11T16:55:34.963Z,91.94
2022-10-11T16:58:43.450Z,91.52
2022-10-11T17:02:05.452Z,91.90
2022-10-11T17:05:20.470Z,92.45
2022-10-11T17:08:28.483Z,92.87
2022-10-11T17:11:37.380Z,93.02
2022-10-11T17:14:52.449Z,93.33
2022-10-11T17:18:07.456Z,92.89
2022-10-11T17:21:24.466Z,92.82
2022-10-11T17:24:26.663Z,93.62
2022-10-11T17:27:41.511Z,93.77
2022-10-11T17:31:04.063Z,93.49
2022-10-11T17:34:21.775Z,93.59
2022-10-11T17:37:23.655Z,93.58
2022-10-11T17:40:38.739Z,93.75
2022-10-11T17:43:54.450Z,94.21
2022-10-11T17:47:03.719Z,94.43
2022-10-11T17:50:18.778Z,94.71
2022-10-11T17:53:33.509Z,94.67
2022-10-11T17:56:38.180Z,94.85
2022-10-11T17:59:53.482Z,95.36
2022-10-11T18:03:01.997Z,95.44
2022-10-11T18:06:19.486Z,95.48
2022-10-11T18:09:34.858Z,94.21
2022-10-11T18:12:43.578Z,93.66
2022-10-11T18:15:59.545Z,94.35
2022-10-11T18:19:10.524Z,94.82
2022-10-11T18:22:19.888Z,94.97
2022-10-11T18:25:34.517Z,95.00
2022-10-11T18:28:44.113Z,95.39
2022-10-11T18:31:52.504Z,95.75
2022-10-11T18:35:07.868Z,96.34
2022-10-11T18:38:16.082Z,97.12
2022-10-11T18:41:34.034Z,97.60
2022-10-11T18:44:42.431Z,98.55
2022-10-11T18:48:00.518Z,98.27
2022-10-11T18:51:12.672Z,98.26
2022-10-11T18:54:27.572Z,97.92
2022-10-11T18:57:43.871Z,97.85
2022-10-11T19:00:53.078Z,97.96
2022-10-11T19:04:16.508Z,98.51
2022-10-11T19:07:26.510Z,99.34
2022-10-11T19:10:35.440Z,99.75
2022-10-11T19:13:51.834Z,100.00
2022-10-11T19:16:55.671Z,100.00
2022-10-11T19:20:11.502Z,100.00
2022-10-11T19:23:13.514Z,100.00
2022-10-11T19:26:34.487Z,100.00
2022-10-11T19:29:49.457Z,100.00
2022-10-11T19:33:04.488Z,100.00
2022-10-11T19:36:49.884Z,100.00
2022-10-11T19:39:58.512Z,100.00
2022-10-11T19:51:11.865Z,100.00
2022-10-11T19:54:26.549Z,100.00
2022-10-11T19:57:35.348Z,100.00
2022-10-11T20:00:52.855Z,100.00
2022-10-11T20:04:39.428Z,100.00
2022-10-11T20:07:40.255Z,100.00
2022-10-11T20:10:55.500Z,100.00
2022-10-11T20:14:10.505Z,100.00
2022-10-11T20:17:18.549Z,100.00
2022-10-11T20:20:34.585Z,100.00
2022-10-11T20:27:02.489Z,100.00
2022-10-11T20:30:12.778Z,100.00
2022-10-11T20:33:21.465Z,100.00
2022-10-11T20:36:37.503Z,100.00
2022-10-11T20:39:39.306Z,100.00
2022-10-11T20:42:54.594Z,100.00
2022-10-11T20:46:08.871Z,100.00
2022-10-11T20:49:18.489Z,100.00
2022-10-11T20:52:41.462Z,100.00
2022-10-11T20:55:57.508Z,100.00
2022-10-11T20:58:59.819Z,100.00
2022-10-11T21:02:21.516Z,100.00
2022-10-11T21:05:30.241Z,100.00
2022-10-11T21:08:46.508Z,100.00
2022-10-11T21:11:48.303Z,100.00
2022-10-11T21:15:04.508Z,100.00
2022-10-11T21:18:13.859Z,100.00
2022-10-11T21:21:28.506Z,100.00
2022-10-11T21:24:43.480Z,100.00
2022-10-11T21:27:52.040Z,100.00
2022-10-11T21:31:15.492Z,100.00
2022-10-11T21:34:30.507Z,100.00
2022-10-11T21:37:39.089Z,100.00
2022-10-11T21:40:53.570Z,100.00
2022-10-11T21:44:08.501Z,100.00
2022-10-11T21:47:23.487Z,100.00
2022-10-11T21:50:41.478Z,100.00
2022-10-11T21:53:43.299Z,100.00
2022-10-11T21:56:58.493Z,100.00
2022-10-11T22:00:10.554Z,100.00
2022-10-11T22:03:35.338Z,100.00
2022-10-11T22:06:37.512Z,100.00
2022-10-11T22:09:52.490Z,100.00
2022-10-11T22:13:00.510Z,100.00
2022-10-11T22:16:12.299Z,100.00
2022-10-11T22:19:23.502Z,100.00
2022-10-11T22:22:38.562Z,100.00
2022-10-11T22:25:40.818Z,100.00
2022-10-11T22:28:55.546Z,100.00
2022-10-11T22:31:57.423Z,100.00
2022-10-11T22:35:12.608Z,100.00
2022-10-11T22:38:21.276Z,100.00
2022-10-11T22:41:37.502Z,100.00
2022-10-11T22:44:52.481Z,100.00
2022-10-11T22:48:03.495Z,100.00
2022-10-11T22:51:12.010Z,100.00
2022-10-11T22:54:20.488Z,100.00
2022-10-11T22:57:35.572Z,100.00
2022-10-11T23:00:44.492Z,100.00
2022-10-11T23:04:01.765Z,100.00
2022-10-11T23:07:10.525Z,100.00
2022-10-11T23:10:26.497Z,100.00
2022-10-11T23:13:28.250Z,100.00
2022-10-11T23:16:43.522Z,100.00
2022-10-11T23:19:45.294Z,100.00
2022-10-11T23:23:00.475Z,100.00
2022-10-11T23:26:18.496Z,100.00
2022-10-11T23:29:26.474Z,100.00
2022-10-11T23:32:42.494Z,100.00
2022-10-11T23:35:51.019Z,100.00
2022-10-11T23:39:05.492Z,100.00
2022-10-11T23:42:14.026Z,100.00
2022-10-11T23:45:22.507Z,100.00
2022-10-11T23:48:31.011Z,100.00
2022-10-11T23:51:39.510Z,100.00
2022-10-11T23:54:54.489Z,100.00
2022-10-11T23:58:03.056Z,100.00
